createdAt,value
2022-07-25T00:02:15.703Z,100476.19
2022-07-25T00:05:02.214Z,100469.28
2022-07-25T00:07:47.495Z,100475.53
2022-07-25T00:10:32.999Z,100465.84
2022-07-25T00:13:17.974Z,100464.53
2022-07-25T00:16:03.322Z,100468.84
2022-07-25T00:18:48.573Z,100465.41
2022-07-25T00:21:33.767Z,100463.63
2022-07-25T00:24:18.592Z,100471.50
2022-07-25T00:27:04.034Z,100466.28
2022-07-25T00:29:49.101Z,100475.19
2022-07-25T00:32:34.405Z,100469.00
2022-07-25T00:35:19.739Z,100482.09
2022-07-25T00:38:05.313Z,100479.66
2022-07-25T00:40:54.219Z,100465.78
2022-07-25T00:43:45.521Z,100477.28
2022-07-25T00:46:30.913Z,100465.19
2022-07-25T00:49:16.807Z,100465.53
2022-07-25T00:52:02.235Z,100454.13
2022-07-25T00:54:47.466Z,100460.19
2022-07-25T00:57:32.737Z,100456.88
2022-07-25T01:00:18.583Z,100435.31
2022-07-25T01:03:04.279Z,100420.44
2022-07-25T01:05:53.559Z,100437.94
2022-07-25T01:08:39.158Z,100423.00
2022-07-25T01:11:25.565Z,100424.91
2022-07-25T01:14:10.391Z,100412.59
2022-07-25T01:16:55.888Z,100416.13
2022-07-25T01:19:41.183Z,100402.19
2022-07-25T01:22:26.073Z,100390.09
2022-07-25T01:25:13.235Z,100410.25
2022-07-25T01:27:58.565Z,100406.81
2022-07-25T01:30:44.288Z,100391.91
2022-07-25T01:33:29.640Z,100392.19
2022-07-25T01:36:14.701Z,100395.09
2022-07-25T01:39:00.034Z,100384.50
2022-07-25T01:41:45.197Z,100374.88
2022-07-25T01:44:30.707Z,100383.69
2022-07-25T01:47:15.837Z,100380.16
2022-07-25T01:50:00.929Z,100377.44
2022-07-25T01:52:46.469Z,100367.13
2022-07-25T01:55:31.644Z,100385.50
2022-07-25T01:58:17.741Z,100363.50
2022-07-25T02:01:04.195Z,100384.69
2022-07-25T02:03:49.693Z,100372.66
2022-07-25T02:06:34.605Z,100372.69
2022-07-25T02:09:19.683Z,100366.56
2022-07-25T02:12:05.498Z,100355.88
2022-07-25T02:14:50.857Z,100349.84
2022-07-25T02:17:36.051Z,100365.72
2022-07-25T02:20:21.578Z,100354.38
2022-07-25T02:23:06.808Z,100331.66
2022-07-25T02:25:52.170Z,100337.75
2022-07-25T02:28:37.513Z,100343.97
2022-07-25T02:31:22.582Z,100336.91
2022-07-25T02:34:08.332Z,100360.56
2022-07-25T02:36:53.623Z,100345.75
2022-07-25T02:39:38.608Z,100345.88
2022-07-25T02:42:23.722Z,100352.16
2022-07-25T02:45:09.666Z,100326.47
2022-07-25T02:47:54.944Z,100326.38
2022-07-25T02:50:41.910Z,100334.25
2022-07-25T02:53:54.407Z,100330.00
2022-07-25T02:56:32.207Z,100331.91
2022-07-25T02:59:17.362Z,100332.81
2022-07-25T03:02:02.249Z,100328.44
2022-07-25T03:04:47.735Z,100311.81
2022-07-25T03:07:33.133Z,100304.03
2022-07-25T03:10:18.556Z,100315.41
2022-07-25T03:13:03.793Z,100308.47
2022-07-25T03:15:49.128Z,100322.41
2022-07-25T03:18:36.421Z,100299.72
2022-07-25T03:21:21.768Z,100304.19
2022-07-25T03:24:07.463Z,100318.28
2022-07-25T03:26:52.948Z,100304.34
2022-07-25T03:29:38.744Z,100306.28
2022-07-25T03:32:24.195Z,100306.22
2022-07-25T03:35:09.516Z,100300.22
2022-07-25T03:37:54.641Z,100295.06
2022-07-25T03:40:40.394Z,100281.06
2022-07-25T03:43:25.446Z,100292.34
2022-07-25T03:46:11.095Z,100289.59
2022-07-25T03:48:56.488Z,100287.00
2022-07-25T03:51:41.999Z,100281.00
2022-07-25T03:54:27.367Z,100282.84
2022-07-25T03:57:12.617Z,100280.44
2022-07-25T03:59:58.017Z,100269.81
2022-07-25T04:02:43.489Z,100272.56
2022-07-25T04:05:28.817Z,100271.63
2022-07-25T04:08:14.281Z,100278.63
2022-07-25T04:10:59.229Z,100268.13
2022-07-25T04:13:44.550Z,100266.34
2022-07-25T04:16:30.345Z,100265.41
2022-07-25T04:19:15.770Z,100262.69
2022-07-25T04:22:02.249Z,100258.28
2022-07-25T04:24:47.753Z,100253.81
2022-07-25T04:27:33.114Z,100263.34
2022-07-25T04:30:24.129Z,100254.53
2022-07-25T04:33:09.701Z,100254.31
2022-07-25T04:35:55.096Z,100255.94
2022-07-25T04:38:40.460Z,100253.38
2022-07-25T04:41:25.220Z,100255.16
2022-07-25T04:44:10.213Z,100235.81
2022-07-25T04:46:55.697Z,100255.81
2022-07-25T04:49:40.498Z,100236.56
2022-07-25T04:52:25.270Z,100228.63
2022-07-25T04:55:11.184Z,100223.38
2022-07-25T04:57:56.544Z,100233.66
2022-07-25T05:00:42.173Z,100231.03
2022-07-25T05:03:27.502Z,100226.47
2022-07-25T05:06:12.559Z,100213.81
2022-07-25T05:08:58.971Z,100218.78
2022-07-25T05:11:48.646Z,100215.09
2022-07-25T05:14:35.669Z,100220.75
2022-07-25T05:17:21.322Z,100207.22
2022-07-25T05:20:07.457Z,100172.75
2022-07-25T05:22:53.217Z,100164.59
2022-07-25T05:25:38.260Z,100152.88
2022-07-25T05:28:23.559Z,100152.75
2022-07-25T05:31:08.489Z,100147.22
2022-07-25T05:33:53.826Z,100150.50
2022-07-25T05:36:40.526Z,100145.81
2022-07-25T05:39:27.079Z,100164.34
2022-07-25T05:42:11.949Z,100139.41
2022-07-25T05:44:57.304Z,100143.38
2022-07-25T05:47:42.728Z,100137.66
2022-07-25T05:50:28.057Z,100138.09
2022-07-25T05:53:13.027Z,100143.75
2022-07-25T05:55:58.337Z,100141.00
2022-07-25T05:58:43.961Z,100142.53
2022-07-25T06:01:29.376Z,100126.53
2022-07-25T06:04:14.646Z,100135.66
2022-07-25T06:07:00.114Z,100132.47
2022-07-25T06:09:45.556Z,100119.59
2022-07-25T06:12:30.936Z,100125.22
2022-07-25T06:15:22.370Z,100108.88
2022-07-25T06:18:08.119Z,100113.50
2022-07-25T06:20:53.669Z,100095.31
2022-07-25T06:23:38.931Z,100098.13
2022-07-25T06:26:24.373Z,100089.06
2022-07-25T06:29:10.383Z,100087.84
2022-07-25T06:31:55.607Z,100093.13
2022-07-25T06:34:40.972Z,100093.34
2022-07-25T06:37:26.594Z,100104.66
2022-07-25T06:40:12.137Z,100115.88
2022-07-25T06:42:57.720Z,100112.06
2022-07-25T06:45:42.793Z,100125.69
2022-07-25T06:48:28.266Z,100110.03
2022-07-25T06:51:13.717Z,100111.38
2022-07-25T06:53:58.977Z,100095.25
2022-07-25T06:56:44.287Z,100099.16
2022-07-25T06:59:29.501Z,100083.63
2022-07-25T07:02:14.855Z,100083.06
2022-07-25T07:05:00.434Z,100087.50
2022-07-25T07:07:47.933Z,100082.88
2022-07-25T07:10:33.550Z,100055.78
2022-07-25T07:13:23.958Z,100075.22
2022-07-25T07:16:09.788Z,100060.75
2022-07-25T07:18:55.665Z,100073.09
2022-07-25T07:21:41.966Z,100056.53
2022-07-25T07:24:27.370Z,100044.22
2022-07-25T07:27:12.767Z,100034.34
2022-07-25T07:29:57.631Z,100036.13
2022-07-25T07:32:43.203Z,100031.50
2022-07-25T07:35:28.542Z,100029.81
2022-07-25T07:38:20.014Z,100063.06
2022-07-25T07:41:04.889Z,100047.38
2022-07-25T07:43:50.462Z,100032.59
2022-07-25T07:46:35.556Z,100006.53
2022-07-25T07:49:21.017Z,100016.00
2022-07-25T07:52:06.475Z,99982.66
2022-07-25T07:54:54.318Z,100019.16
2022-07-25T07:57:41.742Z,100004.13
2022-07-25T08:00:28.226Z,100002.69
2022-07-25T08:03:18.204Z,99980.34
2022-07-25T08:06:04.097Z,100006.13
2022-07-25T08:08:49.597Z,99970.44
2022-07-25T08:11:34.416Z,99992.44
2022-07-25T08:14:19.843Z,99967.63
2022-07-25T08:17:05.183Z,99943.84
2022-07-25T08:19:51.494Z,99971.75
2022-07-25T08:22:42.521Z,99965.34
2022-07-25T08:25:27.587Z,99963.03
2022-07-25T08:28:13.508Z,99910.09
2022-07-25T08:30:59.208Z,99913.03
2022-07-25T08:33:44.978Z,99893.50
2022-07-25T08:36:34.559Z,99924.31
2022-07-25T08:39:19.941Z,99909.63
2022-07-25T08:42:10.810Z,99909.19
2022-07-25T08:44:59.798Z,99901.44
2022-07-25T08:47:46.431Z,99892.13
2022-07-25T08:50:31.623Z,99913.81
2022-07-25T08:53:34.794Z,99922.69
2022-07-25T08:56:21.304Z,99917.34
2022-07-25T08:59:06.445Z,99899.66
2022-07-25T09:01:51.841Z,99919.91
2022-07-25T09:04:37.425Z,99910.50
2022-07-25T09:07:41.789Z,99958.09
2022-07-25T09:10:28.360Z,99917.97
2022-07-25T09:13:14.995Z,99917.16
2022-07-25T09:15:59.956Z,99920.56
2022-07-25T09:18:45.249Z,99914.16
2022-07-25T09:21:30.305Z,99932.09
2022-07-25T09:24:18.329Z,99934.31
2022-07-25T09:27:12.626Z,99922.44
2022-07-25T09:29:58.274Z,99934.25
2022-07-25T09:32:43.493Z,99932.88
2022-07-25T09:35:33.202Z,99949.69
2022-07-25T09:38:20.462Z,99948.63
2022-07-25T09:41:05.805Z,99948.72
2022-07-25T09:43:51.098Z,99953.09
2022-07-25T09:46:36.551Z,99951.69
2022-07-25T09:49:21.922Z,99933.91
2022-07-25T09:52:07.219Z,99928.31
2022-07-25T09:54:52.900Z,99931.88
2022-07-25T09:57:38.366Z,99939.44
2022-07-25T10:00:29.022Z,99949.44
2022-07-25T10:03:29.158Z,99949.03
2022-07-25T10:06:39.118Z,99934.22
2022-07-25T10:09:25.196Z,99945.75
2022-07-25T10:12:12.741Z,99930.63
2022-07-25T10:15:10.483Z,99937.44
2022-07-25T10:18:03.804Z,99944.06
2022-07-25T10:20:52.204Z,99962.88
2022-07-25T10:23:37.726Z,99967.00
2022-07-25T10:26:23.188Z,99965.84
2022-07-25T10:29:10.259Z,99948.16
2022-07-25T10:32:05.942Z,99955.22
2022-07-25T10:34:54.457Z,99917.31
2022-07-25T10:37:39.777Z,99935.16
2022-07-25T10:40:39.492Z,99924.59
2022-07-25T10:43:26.228Z,99921.44
2022-07-25T10:46:14.389Z,99920.56
2022-07-25T10:49:02.738Z,99898.25
2022-07-25T10:51:59.414Z,99912.63
2022-07-25T10:54:59.573Z,99927.25
2022-07-25T10:58:07.891Z,99946.59
2022-07-25T11:00:50.086Z,99908.41
2022-07-25T11:03:35.587Z,99932.22
2022-07-25T11:06:31.181Z,99931.72
2022-07-25T11:09:28.774Z,99920.63
2022-07-25T11:12:16.768Z,99920.31
2022-07-25T11:15:05.242Z,99904.06
2022-07-25T11:17:52.449Z,99936.66
2022-07-25T11:20:37.790Z,99905.88
2022-07-25T11:23:23.143Z,99920.50
2022-07-25T11:26:10.961Z,99929.25
2022-07-25T11:28:56.301Z,99932.97
2022-07-25T11:31:41.936Z,99931.22
2022-07-25T11:34:29.490Z,99920.94
2022-07-25T11:37:15.899Z,99936.31
2022-07-25T11:40:01.379Z,99922.66
2022-07-25T11:42:57.222Z,99918.53
2022-07-25T11:45:42.598Z,99930.75
2022-07-25T11:48:39.774Z,99933.94
2022-07-25T11:51:25.148Z,99937.59
2022-07-25T11:54:11.372Z,99935.03
2022-07-25T11:56:56.305Z,99955.28
2022-07-25T11:59:42.559Z,99951.47
2022-07-25T12:02:31.180Z,99954.53
2022-07-25T12:05:19.827Z,99961.00
2022-07-25T12:08:16.927Z,99931.75
2022-07-25T12:11:02.480Z,99941.50
2022-07-25T12:13:49.016Z,99964.00
2022-07-25T12:16:35.474Z,99931.25
2022-07-25T12:19:22.935Z,99919.94
2022-07-25T12:22:08.028Z,99949.34
2022-07-25T12:24:53.909Z,99959.09
2022-07-25T12:27:39.766Z,99929.44
2022-07-25T12:30:26.358Z,99923.66
2022-07-25T12:33:12.036Z,99895.34
2022-07-25T12:35:57.117Z,99892.16
2022-07-25T12:38:42.590Z,99922.19
2022-07-25T12:41:28.077Z,99909.53
2022-07-25T12:44:13.373Z,99874.81
2022-07-25T12:46:58.798Z,99884.03
2022-07-25T12:49:44.145Z,99908.25
2022-07-25T12:52:29.445Z,99918.19
2022-07-25T12:55:18.017Z,99911.78
2022-07-25T12:58:03.306Z,99910.34
2022-07-25T13:00:48.396Z,99919.25
2022-07-25T13:03:33.794Z,99938.25
2022-07-25T13:06:19.209Z,99935.69
2022-07-25T13:09:04.865Z,99952.66
2022-07-25T13:11:50.505Z,99945.69
2022-07-25T13:14:35.892Z,99961.47
2022-07-25T13:17:25.059Z,99953.25
2022-07-25T13:20:12.466Z,99955.19
2022-07-25T13:22:57.849Z,99946.63
2022-07-25T13:25:43.270Z,99953.56
2022-07-25T13:28:29.174Z,99954.34
2022-07-25T13:31:14.813Z,99984.53
2022-07-25T13:34:00.004Z,99975.50
2022-07-25T13:36:44.936Z,99955.94
2022-07-25T13:39:30.296Z,99970.38
2022-07-25T13:42:15.830Z,99957.06
2022-07-25T13:45:01.017Z,99992.00
2022-07-25T13:47:47.040Z,99979.41
2022-07-25T13:50:35.572Z,99995.91
2022-07-25T13:53:20.933Z,99985.97
2022-07-25T13:56:06.151Z,99979.38
2022-07-25T13:58:51.606Z,99963.63
2022-07-25T14:01:36.956Z,99986.19
2022-07-25T14:04:22.812Z,99990.56
2022-07-25T14:07:08.239Z,99984.03
2022-07-25T14:09:53.548Z,99989.59
2022-07-25T14:12:38.588Z,99966.28
2022-07-25T14:15:23.701Z,99962.88
2022-07-25T14:18:09.125Z,99972.59
2022-07-25T14:20:53.934Z,99970.72
2022-07-25T14:23:39.445Z,99974.91
2022-07-25T14:26:24.386Z,99970.19
2022-07-25T14:29:09.670Z,99957.41
2022-07-25T14:31:55.337Z,99964.88
2022-07-25T14:34:40.586Z,99967.38
2022-07-25T14:37:26.041Z,99958.25
2022-07-25T14:40:12.191Z,99970.81
2022-07-25T14:42:57.469Z,99961.53
2022-07-25T14:45:42.937Z,99978.81
2022-07-25T14:48:28.365Z,100004.59
2022-07-25T14:51:13.317Z,99979.41
2022-07-25T14:53:58.771Z,99979.16
2022-07-25T14:56:44.483Z,99959.09
2022-07-25T14:59:29.987Z,99987.69
2022-07-25T15:02:15.094Z,100007.41
2022-07-25T15:05:00.481Z,100003.94
2022-07-25T15:07:45.847Z,100012.69
2022-07-25T15:10:31.333Z,100007.66
2022-07-25T15:13:32.656Z,100012.81
2022-07-25T15:16:17.904Z,100000.47
2022-07-25T15:19:16.503Z,100016.22
2022-07-25T15:22:02.767Z,100023.97
2022-07-25T15:25:27.263Z,100012.31
2022-07-25T15:27:53.113Z,100006.06
2022-07-25T15:30:38.474Z,100025.03
2022-07-25T15:33:23.635Z,100023.59
2022-07-25T15:36:09.007Z,100043.53
2022-07-25T15:38:54.261Z,100055.28
2022-07-25T15:41:39.661Z,100071.53
2022-07-25T15:44:25.366Z,100051.59
2022-07-25T15:47:10.917Z,100070.88
2022-07-25T15:49:56.198Z,100071.91
2022-07-25T15:52:42.171Z,100085.25
2022-07-25T15:55:27.274Z,100098.69
2022-07-25T15:58:13.801Z,100085.97
2022-07-25T16:00:59.038Z,100091.59
2022-07-25T16:03:44.420Z,100083.91
2022-07-25T16:06:29.878Z,100091.78
2022-07-25T16:09:15.292Z,100085.72
2022-07-25T16:12:01.325Z,100105.44
2022-07-25T16:14:46.492Z,100110.50
2022-07-25T16:17:32.079Z,100111.91
2022-07-25T16:20:17.636Z,100102.19
2022-07-25T16:23:03.220Z,100109.00
2022-07-25T16:25:48.409Z,100120.84
2022-07-25T16:28:35.625Z,100132.00
2022-07-25T16:31:20.751Z,100130.88
2022-07-25T16:34:06.182Z,100133.50
2022-07-25T16:36:51.887Z,100138.47
2022-07-25T16:39:37.295Z,100147.47
2022-07-25T16:42:22.806Z,100157.22
2022-07-25T16:45:08.900Z,100157.06
2022-07-25T16:47:54.264Z,100158.84
2022-07-25T16:50:39.464Z,100170.84
2022-07-25T16:53:24.728Z,100171.16
2022-07-25T16:56:10.392Z,100172.34
2022-07-25T16:58:55.699Z,100172.91
2022-07-25T17:01:41.297Z,100184.13
2022-07-25T17:04:26.541Z,100187.28
2022-07-25T17:07:11.901Z,100183.22
2022-07-25T17:09:57.364Z,100185.31
2022-07-25T17:12:42.789Z,100184.25
2022-07-25T17:15:28.284Z,100192.81
2022-07-25T17:18:13.655Z,100178.09
2022-07-25T17:20:59.134Z,100158.00
2022-07-25T17:23:44.897Z,100170.66
2022-07-25T17:26:30.301Z,100168.00
2022-07-25T17:29:15.636Z,100169.69
2022-07-25T17:32:01.116Z,100176.09
2022-07-25T17:34:46.454Z,100167.47
2022-07-25T17:37:31.773Z,100172.34
2022-07-25T17:40:17.255Z,100172.13
2022-07-25T17:43:02.784Z,100162.38
2022-07-25T17:45:48.129Z,100170.03
2022-07-25T17:48:33.643Z,100170.03
2022-07-25T17:51:19.082Z,100150.03
2022-07-25T17:54:04.834Z,100156.41
2022-07-25T17:56:50.338Z,100147.22
2022-07-25T17:59:35.893Z,100160.06
2022-07-25T18:02:21.148Z,100145.59
2022-07-25T18:05:07.030Z,100171.66
2022-07-25T18:07:52.584Z,100153.22
2022-07-25T18:10:38.026Z,100157.31
2022-07-25T18:13:23.303Z,100166.25
2022-07-25T18:16:09.993Z,100168.38
2022-07-25T18:18:55.001Z,100173.75
2022-07-25T18:21:40.387Z,100170.84
2022-07-25T18:24:29.208Z,100157.63
2022-07-25T18:27:14.677Z,100164.00
2022-07-25T18:30:00.127Z,100175.94
2022-07-25T18:32:45.534Z,100187.22
2022-07-25T18:35:31.244Z,100185.88
2022-07-25T18:38:16.796Z,100187.75
2022-07-25T18:41:27.557Z,100188.22
2022-07-25T18:44:07.007Z,100197.44
2022-07-25T18:46:52.741Z,100201.22
2022-07-25T18:49:38.112Z,100204.66
2022-07-25T18:52:24.159Z,100205.66
2022-07-25T18:55:09.812Z,100216.19
2022-07-25T18:57:55.090Z,100213.59
2022-07-25T19:00:40.058Z,100212.53
2022-07-25T19:03:25.406Z,100211.56
2022-07-25T19:06:10.999Z,100224.78
2022-07-25T19:08:55.962Z,100222.16
2022-07-25T19:11:42.389Z,100234.31
2022-07-25T19:14:28.078Z,100233.19
2022-07-25T19:17:13.176Z,100226.72
2022-07-25T19:20:00.265Z,100239.09
2022-07-25T19:22:45.351Z,100236.69
2022-07-25T19:25:30.662Z,100241.06
2022-07-25T19:28:15.589Z,100248.13
2022-07-25T19:31:00.696Z,100254.69
2022-07-25T19:33:46.037Z,100265.44
2022-07-25T19:36:31.492Z,100263.38
2022-07-25T19:39:16.630Z,100282.78
2022-07-25T19:42:02.893Z,100288.06
2022-07-25T19:44:47.978Z,100278.94
2022-07-25T19:47:33.628Z,100292.00
2022-07-25T19:50:19.496Z,100341.66
2022-07-25T19:53:04.603Z,100341.41
2022-07-25T19:55:49.985Z,100331.47
2022-07-25T19:58:38.574Z,100329.66
2022-07-25T20:01:24.452Z,100338.81
2022-07-25T20:04:10.211Z,100345.41
2022-07-25T20:06:55.596Z,100347.59
2022-07-25T20:09:40.474Z,100363.25
2022-07-25T20:12:25.288Z,100358.59
2022-07-25T20:15:10.499Z,100353.84
2022-07-25T20:17:55.592Z,100373.06
2022-07-25T20:20:40.716Z,100368.34
2022-07-25T20:23:26.680Z,100365.38
2022-07-25T20:26:13.202Z,100362.69
2022-07-25T20:28:58.153Z,100363.22
2022-07-25T20:31:43.611Z,100376.88
2022-07-25T20:34:28.737Z,100377.19
2022-07-25T20:37:13.669Z,100370.31
2022-07-25T20:39:58.925Z,100374.06
2022-07-25T20:42:44.010Z,100363.50
2022-07-25T20:45:29.323Z,100368.81
2022-07-25T20:48:14.743Z,100355.72
2022-07-25T20:51:00.806Z,100355.91
2022-07-25T20:53:46.003Z,100356.91
2022-07-25T20:56:38.499Z,100358.00
2022-07-25T20:59:24.174Z,100354.47
2022-07-25T21:02:09.748Z,100357.41
2022-07-25T21:04:54.953Z,100358.91
2022-07-25T21:07:40.322Z,100365.31
2022-07-25T21:10:25.829Z,100366.13
2022-07-25T21:13:11.191Z,100370.94
2022-07-25T21:15:57.050Z,100377.38
2022-07-25T21:18:42.653Z,100377.44
2022-07-25T21:21:27.738Z,100388.72
2022-07-25T21:24:13.007Z,100402.00
2022-07-25T21:26:58.585Z,100393.34
2022-07-25T21:29:44.015Z,100387.50
2022-07-25T21:32:28.996Z,100390.81
2022-07-25T21:35:14.482Z,100409.59
2022-07-25T21:38:00.054Z,100405.19
2022-07-25T21:40:45.229Z,100415.72
2022-07-25T21:43:30.569Z,100413.63
2022-07-25T21:46:15.581Z,100418.38
2022-07-25T21:49:00.863Z,100422.78
2022-07-25T21:51:46.254Z,100417.63
2022-07-25T21:54:31.574Z,100424.44
2022-07-25T21:57:17.029Z,100418.88
2022-07-25T22:00:04.201Z,100422.25
2022-07-25T22:02:49.824Z,100420.16
2022-07-25T22:05:34.638Z,100419.94
2022-07-25T22:08:19.911Z,100426.91
2022-07-25T22:11:16.101Z,100430.16
2022-07-25T22:14:10.680Z,100428.34
2022-07-25T22:16:56.337Z,100423.59
2022-07-25T22:19:41.621Z,100445.34
2022-07-25T22:22:26.999Z,100452.03
2022-07-25T22:25:12.670Z,100457.47
2022-07-25T22:27:58.126Z,100447.63
2022-07-25T22:30:43.447Z,100449.63
2022-07-25T22:33:28.837Z,100448.06
2022-07-25T22:36:14.264Z,100453.25
2022-07-25T22:39:01.230Z,100455.09
2022-07-25T22:41:46.589Z,100460.56
2022-07-25T22:44:31.975Z,100458.97
2022-07-25T22:47:17.373Z,100457.06
2022-07-25T22:50:03.508Z,100464.00
2022-07-25T22:52:48.474Z,100466.00
2022-07-25T22:55:33.953Z,100467.69
2022-07-25T22:58:19.322Z,100472.13
2022-07-25T23:01:04.781Z,100473.19
2022-07-25T23:03:50.464Z,100478.81
2022-07-25T23:06:35.433Z,100481.03
2022-07-25T23:09:20.412Z,100484.56
2022-07-25T23:12:05.503Z,100473.94
2022-07-25T23:14:50.722Z,100483.06
2022-07-25T23:17:35.789Z,100484.59
2022-07-25T23:20:21.039Z,100472.03
2022-07-25T23:23:06.514Z,100484.25
2022-07-25T23:25:51.919Z,100481.75
2022-07-25T23:28:37.169Z,100477.44
2022-07-25T23:31:22.477Z,100484.13
2022-07-25T23:34:07.883Z,100482.31
2022-07-25T23:36:53.426Z,100494.47
2022-07-25T23:39:38.279Z,100487.41
2022-07-25T23:42:23.721Z,100478.50
2022-07-25T23:45:09.311Z,100481.03
2022-07-25T23:47:56.807Z,100489.19
2022-07-25T23:50:41.917Z,100483.22
2022-07-25T23:53:27.335Z,100496.41
2022-07-25T23:56:17.379Z,100500.16
2022-07-25T23:59:06.148Z,100499.34
